CST,Max TemperatureF,Mean TemperatureF,Min TemperatureF,Max Dew PointF,MeanDew PointF,Min DewpointF,Max Humidity, Mean Humidity, Min Humidity, Max Sea Level PressureIn, Mean Sea Level PressureIn, Min Sea Level PressureIn, Max VisibilityMiles, Mean VisibilityMiles, Min VisibilityMiles, Max Wind SpeedMPH, Mean Wind SpeedMPH, Max Gust SpeedMPH,PrecipitationIn, CloudCover, Events, WindDirDegrees
2013-2-1,36,23,10,19,10,3,76,57,38,30.52,30.38,30.21,10,10,10,10,5,13,0.00,0,,109
2013-2-2,52,38,24,32,26,17,75,61,46,30.27,30.21,30.16,10,10,10,16,8,24,T,2,,245
2013-2-3,53,42,31,28,24,18,75,51,26,30.32,30.17,29.95,10,10,10,16,9,24,0.00,0,,232
2013-2-4,61,46,31,37,31,24,82,59,35,29.99,29.89,29.82,10,10,10,22,12,36,T,1,,273
2013-2-5,61,43,25,37,31,25,100,68,36,30.08,30.01,29.94,10,9,2,16,4,21,0.00,0,,328
2013-2-6,67,52,37,40,34,29,76,55,34,30.10,30.02,29.93,10,10,10,18,10,25,0.00,2,,130
2013-2-7,54,46,38,50,45,34,100,80,59,30.16,29.96,29.87,10,6,1,21,8,30,0.40,8,Rain-Thunderstorm,11
2013-2-8,47,40,33,33,30,28,85,72,58,30.33,30.27,30.18,10,8,5,16,8,21,0.00,4,,47
2013-2-9,47,40,33,39,33,29,89,71,53,30.22,30.02,29.80,10,8,5,22,12,29,0.06,5,Rain,132
2013-2-10,58,49,39,51,39,25,93,62,30,30.04,29.72,29.60,10,9,5,31,18,38,0.08,4,Rain-Thunderstorm,209
2013-2-11,49,39,29,27,25,24,78,59,39,30.22,30.15,30.05,10,10,9,13,5,20,0.00,0,,290
2013-2-12,42,34,25,33,30,24,100,80,59,30.17,30.05,29.97,10,6,1,12,4,15,0.25,6,Rain-Snow,29
2013-2-13,49,40,31,36,32,28,100,78,56,30.02,29.97,29.92,10,5,0,17,10,29,0.03,5,Fog-Rain-Snow,248
2013-2-14,54,44,33,33,30,25,75,58,41,30.19,30.05,29.94,10,10,10,14,8,18,0.00,2,,287
2013-2-15,40,32,24,27,18,12,78,56,33,30.38,30.32,30.20,10,10,10,20,10,25,0.00,2,,314
2013-2-16,36,31,25,27,21,15,92,68,44,30.37,30.28,30.13,10,9,1,14,8,17,T,7,Snow,279
2013-2-17,65,49,33,29,24,14,56,40,24,30.11,29.95,29.76,10,10,10,25,12,29,0.00,0,,183
2013-2-18,61,46,31,49,35,20,72,54,35,30.16,29.78,29.56,10,10,10,30,21,41,0.01,4,Rain,250
2013-2-19,43,32,21,20,15,11,84,57,29,30.34,30.28,30.17,10,10,10,18,7,23,0.00,0,,326
2013-2-20,35,30,25,21,12,8,55,47,38,30.35,30.23,30.09,10,10,8,14,8,21,T,5,Rain-Snow,79
2013-2-21,33,31,28,32,28,21,100,85,69,30.09,29.84,29.71,10,5,0,22,12,29,1.05,8,Fog-Rain-Snow-Thunderstorm,100
2013-2-22,33,27,20,25,20,17,92,84,75,30.15,30.05,29.90,10,10,7,24,9,31,0.00,4,,265
2013-2-23,39,27,15,24,19,14,92,70,48,30.14,30.06,30.01,10,9,5,6,2,,0.00,0,,129
2013-2-24,56,41,25,36,29,21,81,64,47,30.02,29.94,29.85,10,10,9,18,8,30,0.00,0,,108
2013-2-25,40,37,33,34,31,27,100,80,59,29.89,29.69,29.52,10,7,2,22,11,36,0.47,6,Rain-Snow-Thunderstorm,49
2013-2-26,34,33,32,32,30,29,96,89,82,29.90,29.59,29.43,10,5,0,25,15,32,0.35,8,Fog-Snow,331
2013-2-27,36,33,30,30,27,25,92,81,70,30.10,29.98,29.87,10,7,2,17,11,28,T,6,Snow,293
2013-2-28,34,32,30,27,26,25,85,77,69,30.24,30.17,30.07,10,9,7,13,10,,0.00,7,,315